Time;durP1;ratioP1;P1;durP2;ratioP2;P2;SDS_P1;SDS_P2;PMS_P1;PMS_P2;Temp;Humidity;BMP_temperature;BMP_pressure;BME280_temperature;BME280_humidity;BME280_pressure;Samples;Min_cycle;Max_cycle;Signal;HPM_P1;HPM_P2
2023/08/31 00:01:09;;;;;;;5.67;5.10;;;;;;;15.39;100.00;100406.03;6242804;28;20314;-66
2023/08/31 00:04:29;;;;;;;5.03;4.63;;;;;;;15.33;100.00;100403.19;6245445;28;20493;-66
2023/08/31 00:07:50;;;;;;;4.53;4.13;;;;;;;15.27;100.00;100396.56;6240820;28;20617;-66
2023/08/31 00:11:13;;;;;;;5.43;4.93;;;;;;;15.17;100.00;100388.66;6236330;28;20518;-66
2023/08/31 00:14:34;;;;;;;4.53;3.83;;;;;;;15.13;100.00;100386.47;6237413;28;20292;-66
2023/08/31 00:17:54;;;;;;;5.57;4.33;;;;;;;15.02;100.00;100387.72;6229768;28;20232;-66
2023/08/31 00:21:15;;;;;;;4.83;4.43;;;;;;;15.18;100.00;100390.38;6230637;28;20231;-66
2023/08/31 00:24:36;;;;;;;5.03;4.37;;;;;;;15.08;100.00;100386.19;6240537;28;20322;-66
2023/08/31 00:28:04;;;;;;;4.13;3.70;;;;;;;15.24;100.00;100402.38;6242033;28;20660;-66
2023/08/31 00:31:27;;;;;;;5.50;4.90;;;;;;;15.16;100.00;100399.72;6240729;28;20254;-66
2023/08/31 00:34:48;;;;;;;5.50;5.00;;;;;;;15.05;100.00;100400.09;6240444;28;20338;-67
2023/08/31 00:38:09;;;;;;;4.47;4.07;;;;;;;15.26;100.00;100407.63;6241168;28;20280;-67
2023/08/31 00:41:30;;;;;;;3.60;3.40;;;;;;;14.97;100.00;100400.13;6239503;28;20235;-66
2023/08/31 00:44:52;;;;;;;4.53;4.13;;;;;;;14.96;100.00;100391.13;6240998;28;20232;-66
2023/08/31 00:48:16;;;;;;;5.00;4.60;;;;;;;14.96;100.00;100401.13;6228321;28;20350;-66
2023/08/31 00:51:38;;;;;;;4.03;3.63;;;;;;;14.86;100.00;100409.50;6244062;28;20236;-66
2023/08/31 00:54:59;;;;;;;6.03;4.40;;;;;;;14.96;100.00;100412.84;6247653;28;20888;-67
2023/08/31 00:58:20;;;;;;;4.50;4.10;;;;;;;15.12;100.00;100403.81;6226201;28;20606;-65
2023/08/31 01:01:50;;;;;;;5.33;4.67;;;;;;;14.76;100.00;100400.72;6242428;28;20579;-66
2023/08/31 01:05:22;;;;;;;4.63;4.23;;;;;;;14.76;100.00;100405.31;6241993;28;20356;-66
2023/08/31 01:08:53;;;;;;;4.47;4.07;;;;;;;14.74;100.00;100399.19;6227557;28;20239;-66
2023/08/31 01:12:19;;;;;;;4.23;3.90;;;;;;;14.52;100.00;100410.81;6244613;28;20235;-65
2023/08/31 01:15:46;;;;;;;3.77;3.43;;;;;;;14.58;100.00;100407.41;6247256;28;20231;-66
2023/08/31 01:19:25;;;;;;;4.20;3.43;;;;;;;14.47;100.00;100402.31;6243310;28;20239;-66
2023/08/31 01:22:58;;;;;;;5.20;4.20;;;;;;;14.42;100.00;100410.97;6249039;28;20293;-66
2023/08/31 01:26:21;;;;;;;4.37;3.97;;;;;;;14.31;100.00;100409.47;6252105;28;20240;-66
2023/08/31 01:29:45;;;;;;;3.40;3.20;;;;;;;14.49;100.00;100411.13;6251051;28;20235;-66
2023/08/31 01:33:06;;;;;;;4.37;4.00;;;;;;;14.37;100.00;100418.78;6249187;28;20235;-66
2023/08/31 01:36:29;;;;;;;3.53;3.23;;;;;;;14.62;100.00;100415.03;6252460;28;20940;-67
2023/08/31 01:40:04;;;;;;;3.13;2.83;;;;;;;14.51;100.00;100418.09;6247741;28;20239;-66
2023/08/31 01:43:27;;;;;;;3.90;3.60;;;;;;;14.41;100.00;100414.72;6247481;28;20354;-65
2023/08/31 01:46:53;;;;;;;3.10;2.77;;;;;;;14.46;100.00;100427.78;6231957;28;20239;-65
2023/08/31 01:50:18;;;;;;;3.20;2.90;;;;;;;14.46;100.00;100417.75;6236011;28;20536;-66
2023/08/31 01:53:40;;;;;;;4.50;3.63;;;;;;;14.34;100.00;100421.84;6232239;28;20284;-65
2023/08/31 01:57:02;;;;;;;3.80;3.50;;;;;;;14.31;100.00;100422.16;6242891;28;20361;-67
2023/08/31 02:00:26;;;;;;;3.63;3.00;;;;;;;14.15;100.00;100428.44;6229129;28;20232;-66
2023/08/31 02:03:47;;;;;;;4.63;4.23;;;;;;;14.24;100.00;100432.00;6247701;28;20223;-67
2023/08/31 02:07:08;;;;;;;3.63;3.33;;;;;;;14.29;100.00;100426.91;6230501;28;20569;-67
2023/08/31 02:10:29;;;;;;;5.13;4.63;;;;;;;14.19;100.00;100424.34;6245213;28;20602;-66
2023/08/31 02:13:50;;;;;;;4.03;3.33;;;;;;;14.31;100.00;100428.44;6247427;28;20853;-66
2023/08/31 02:17:13;;;;;;;5.33;3.93;;;;;;;14.35;100.00;100429.78;6249211;28;20787;-66
2023/08/31 02:20:34;;;;;;;4.20;3.80;;;;;;;14.27;100.00;100420.78;6231425;28;20236;-66
2023/08/31 02:23:55;;;;;;;3.77;3.47;;;;;;;14.19;100.00;100431.63;6233164;28;20243;-67
2023/08/31 02:27:17;;;;;;;3.83;3.20;;;;;;;14.40;100.00;100429.28;6226728;28;20235;-66
2023/08/31 02:30:38;;;;;;;5.50;3.77;;;;;;;14.36;100.00;100427.94;6242806;28;20605;-66
2023/08/31 02:34:01;;;;;;;3.90;3.23;;;;;;;14.11;100.00;100431.66;6227088;28;20228;-66
2023/08/31 02:37:22;;;;;;;5.10;3.10;;;;;;;14.00;100.00;100432.81;6234899;28;20568;-66
2023/08/31 02:40:47;;;;;;;12.33;3.30;;;;;;;14.18;100.00;100440.81;6236831;28;20320;-66
2023/08/31 02:44:08;;;;;;;3.80;3.50;;;;;;;14.09;100.00;100433.69;6216614;28;20228;-66
2023/08/31 02:47:28;;;;;;;3.67;2.70;;;;;;;14.08;100.00;100440.97;6227818;28;20601;-66
2023/08/31 02:50:51;;;;;;;3.73;2.93;;;;;;;14.09;100.00;100450.81;6227032;28;20243;-67
2023/08/31 02:54:12;;;;;;;3.57;2.70;;;;;;;13.95;100.00;100443.34;6246758;28;20227;-66
2023/08/31 02:57:33;;;;;;;2.73;2.27;;;;;;;13.89;100.00;100437.75;6227857;28;21170;-67
2023/08/31 03:00:55;;;;;;;3.83;3.00;;;;;;;13.94;100.00;100440.78;6224196;28;20231;-66
2023/08/31 03:04:17;;;;;;;2.97;2.63;;;;;;;13.68;100.00;100453.63;6204848;28;20240;-67
2023/08/31 03:07:39;;;;;;;3.50;3.17;;;;;;;13.73;100.00;100452.09;6245552;28;20248;-66
2023/08/31 03:11:01;;;;;;;4.37;3.20;;;;;;;13.66;100.00;100461.94;6233357;28;20235;-66
2023/08/31 03:14:23;;;;;;;1.87;1.77;;;;;;;13.69;100.00;100455.31;6222086;28;20269;-66
2023/08/31 03:17:44;;;;;;;3.33;3.00;;;;;;;13.56;100.00;100456.66;6238548;28;20240;-67
2023/08/31 03:21:05;;;;;;;3.43;2.90;;;;;;;13.60;100.00;100459.88;6233380;28;20239;-64
2023/08/31 03:24:27;;;;;;;2.87;2.40;;;;;;;13.56;100.00;100456.66;6222778;28;20239;-65
2023/08/31 03:27:48;;;;;;;3.30;2.87;;;;;;;13.60;100.00;100444.47;6244389;28;20232;-66
2023/08/31 03:31:09;;;;;;;6.30;2.63;;;;;;;13.50;100.00;100457.31;6245648;28;20231;-67
2023/08/31 03:34:31;;;;;;;3.17;2.53;;;;;;;13.46;100.00;100460.50;6248652;28;20350;-66
2023/08/31 03:37:52;;;;;;;2.73;2.37;;;;;;;13.58;100.00;100461.88;6230258;28;20263;-66
2023/08/31 03:41:14;;;;;;;2.23;2.03;;;;;;;13.64;100.00;100464.78;6231242;28;20240;-65
2023/08/31 03:44:35;;;;;;;3.70;2.13;;;;;;;13.62;100.00;100461.41;6226506;28;20224;-66
2023/08/31 03:47:56;;;;;;;2.93;2.40;;;;;;;13.49;100.00;100455.63;6245482;28;20597;-66
2023/08/31 03:51:18;;;;;;;4.10;3.07;;;;;;;13.61;100.00;100461.56;6246867;28;20232;-65
2023/08/31 03:54:39;;;;;;;2.83;2.20;;;;;;;13.51;100.00;100467.16;6217266;28;20276;-65
2023/08/31 03:58:02;;;;;;;2.53;2.17;;;;;;;13.48;100.00;100467.47;6232934;28;20235;-65
2023/08/31 04:01:23;;;;;;;2.33;1.97;;;;;;;13.59;99.73;100467.16;6225360;28;20486;-66
2023/08/31 04:04:44;;;;;;;2.20;2.00;;;;;;;13.46;99.33;100465.91;6220823;28;20232;-66
2023/08/31 04:08:06;;;;;;;2.37;2.07;;;;;;;13.66;99.04;100471.91;6233406;28;20501;-66
2023/08/31 04:11:29;;;;;;;2.77;2.23;;;;;;;13.48;98.47;100470.16;6224982;28;20319;-66
2023/08/31 04:14:52;;;;;;;2.37;1.87;;;;;;;13.58;98.79;100470.88;6212647;28;20586;-66
2023/08/31 04:18:13;;;;;;;6.73;3.00;;;;;;;13.59;98.01;100469.88;6234785;28;20232;-66
2023/08/31 04:21:34;;;;;;;3.57;2.50;;;;;;;13.62;98.07;100466.81;6236641;28;20259;-65
2023/08/31 04:24:55;;;;;;;2.47;1.70;;;;;;;13.63;97.71;100468.53;6234219;28;20239;-65
2023/08/31 04:28:16;;;;;;;4.37;2.37;;;;;;;13.52;97.83;100470.69;6240835;28;20227;-66
2023/08/31 04:31:58;;;;;;;2.60;1.90;;;;;;;13.58;97.60;100468.16;6239667;28;21263;-67
2023/08/31 04:35:26;;;;;;;3.80;1.97;;;;;;;13.48;97.82;100482.84;6240628;28;20244;-66
2023/08/31 04:38:49;;;;;;;3.30;2.07;;;;;;;13.28;97.93;100492.25;6232772;28;20291;-65
2023/08/31 04:42:10;;;;;;;3.00;2.53;;;;;;;13.34;98.30;100497.03;6222612;28;20498;-65
2023/08/31 04:45:31;;;;;;;9.97;3.57;;;;;;;13.36;98.37;100495.84;6241486;28;20232;-66
2023/08/31 04:48:53;;;;;;;4.23;3.53;;;;;;;13.42;98.42;100503.31;6239094;28;20508;-65
2023/08/31 04:52:14;;;;;;;3.43;2.30;;;;;;;13.34;98.34;100503.28;6234710;28;20232;-66
2023/08/31 04:55:35;;;;;;;3.03;2.43;;;;;;;13.11;98.56;100507.59;6244547;28;20227;-66
2023/08/31 04:58:56;;;;;;;3.97;2.67;;;;;;;13.32;98.82;100516.16;6239545;28;20239;-65
2023/08/31 05:02:16;;;;;;;3.57;2.70;;;;;;;13.38;98.44;100522.75;6212766;28;20249;-65
2023/08/31 05:05:38;;;;;;;3.53;2.40;;;;;;;13.23;98.79;100535.19;6230616;28;21013;-65
2023/08/31 05:08:59;;;;;;;4.33;3.40;;;;;;;13.21;99.15;100534.53;6223497;28;20256;-66
2023/08/31 05:12:21;;;;;;;4.47;3.37;;;;;;;13.11;98.49;100539.22;6231577;28;20250;-65
2023/08/31 05:15:42;;;;;;;4.97;3.67;;;;;;;13.02;99.09;100542.81;6236095;28;20919;-66
2023/08/31 05:19:03;;;;;;;4.83;2.90;;;;;;;13.07;99.16;100544.09;6226458;28;20247;-67
2023/08/31 05:22:26;;;;;;;3.40;3.20;;;;;;;13.30;98.99;100549.81;6228876;28;20243;-66
2023/08/31 05:25:46;;;;;;;4.93;2.60;;;;;;;13.26;98.35;100552.00;6242266;28;20566;-65
2023/08/31 05:29:07;;;;;;;2.30;2.10;;;;;;;13.34;98.62;100564.72;6242746;28;20296;-66
2023/08/31 05:32:29;;;;;;;4.00;2.17;;;;;;;13.06;98.46;100563.22;6241629;28;20235;-67
2023/08/31 05:35:50;;;;;;;12.63;2.93;;;;;;;13.32;98.50;100562.19;6246984;28;20590;-66
2023/08/31 05:39:12;;;;;;;5.47;2.50;;;;;;;13.36;98.51;100565.41;6240000;28;20558;-66
2023/08/31 05:42:33;;;;;;;2.77;2.57;;;;;;;13.40;97.87;100564.06;6244567;28;20259;-66
2023/08/31 05:45:54;;;;;;;4.23;3.13;;;;;;;13.38;98.15;100564.22;6243128;28;20322;-67
2023/08/31 05:49:15;;;;;;;2.67;1.97;;;;;;;13.48;97.40;100567.66;6247132;28;20236;-65
2023/08/31 05:52:37;;;;;;;3.63;2.63;;;;;;;13.57;97.08;100566.69;6240986;28;21071;-66
2023/08/31 05:56:03;;;;;;;2.77;2.27;;;;;;;13.77;96.45;100561.84;6242521;28;20236;-66
2023/08/31 05:59:24;;;;;;;6.27;2.40;;;;;;;13.55;95.77;100568.72;6237777;28;20223;-66
2023/08/31 06:02:45;;;;;;;2.87;2.20;;;;;;;13.64;95.83;100566.91;6241120;28;20768;-66
2023/08/31 06:06:06;;;;;;;3.80;2.83;;;;;;;13.83;95.44;100582.84;6251583;28;20602;-65
2023/08/31 06:09:27;;;;;;;3.43;2.73;;;;;;;13.77;94.74;100585.41;6244705;28;20366;-66
2023/08/31 06:12:50;;;;;;;2.37;2.10;;;;;;;13.97;95.16;100578.69;6249714;28;20616;-66
2023/08/31 06:16:11;;;;;;;2.63;2.43;;;;;;;13.99;94.42;100577.50;6248614;28;20257;-64
2023/08/31 06:19:31;;;;;;;4.10;2.27;;;;;;;13.83;94.17;100592.88;6250339;28;20235;-67
2023/08/31 06:22:53;;;;;;;8.53;2.47;;;;;;;13.90;94.32;100586.63;6245044;28;20236;-66
2023/08/31 06:26:13;;;;;;;2.17;1.97;;;;;;;14.08;93.58;100587.34;6250981;28;20248;-66
2023/08/31 06:29:36;;;;;;;3.23;2.43;;;;;;;14.41;92.66;100588.28;6240018;28;20595;-65
2023/08/31 06:32:58;;;;;;;3.43;2.30;;;;;;;14.57;91.77;100584.72;6242271;28;20496;-66
2023/08/31 06:36:19;;;;;;;2.53;2.33;;;;;;;14.32;91.21;100590.16;6230055;28;20323;-65
2023/08/31 06:39:40;;;;;;;3.37;2.33;;;;;;;14.22;91.68;100580.44;6230584;28;20229;-66
2023/08/31 06:43:02;;;;;;;2.53;2.17;;;;;;;14.55;90.36;100584.91;6240662;28;20236;-65
2023/08/31 06:46:24;;;;;;;2.23;2.03;;;;;;;14.63;89.45;100592.19;6244404;28;20593;-65
2023/08/31 06:49:46;;;;;;;2.20;2.00;;;;;;;14.47;89.11;100586.75;6240209;28;20240;-68
2023/08/31 06:53:09;;;;;;;2.53;2.33;;;;;;;14.63;88.76;100592.19;6236930;28;20231;-65
2023/08/31 06:56:31;;;;;;;5.60;4.00;;;;;;;14.58;89.05;100591.88;6246190;28;20231;-66
2023/08/31 06:59:52;;;;;;;4.60;2.73;;;;;;;14.56;88.42;100593.91;6233889;28;20235;-67
2023/08/31 07:03:14;;;;;;;3.23;2.80;;;;;;;14.65;87.76;100580.16;6247987;28;20260;-66
2023/08/31 07:06:35;;;;;;;3.67;1.77;;;;;;;14.71;86.32;100593.03;6246663;28;20277;-66
2023/08/31 07:09:56;;;;;;;2.70;2.13;;;;;;;14.59;86.78;100602.53;6244445;28;20293;-66
2023/08/31 07:13:17;;;;;;;1.73;1.63;;;;;;;14.55;86.87;100601.19;6243429;28;20232;-67
2023/08/31 07:16:38;;;;;;;4.17;2.60;;;;;;;15.09;85.93;100599.63;6232888;28;20239;-67
2023/08/31 07:20:00;;;;;;;3.93;2.27;;;;;;;14.98;85.51;100602.69;6252670;28;20243;-67
2023/08/31 07:23:22;;;;;;;5.07;2.07;;;;;;;14.94;84.71;100599.47;6248766;28;20252;-67
2023/08/31 07:26:42;;;;;;;3.77;2.03;;;;;;;15.11;83.51;100600.31;6245011;28;20251;-67
2023/08/31 07:30:05;;;;;;;2.43;1.53;;;;;;;15.30;82.32;100591.78;6254746;28;20618;-66
2023/08/31 07:33:26;;;;;;;1.97;1.60;;;;;;;15.20;82.49;100593.84;6246109;28;20224;-66
2023/08/31 07:36:48;;;;;;;3.50;1.93;;;;;;;15.38;82.47;100593.63;6242974;28;22910;-66
2023/08/31 07:40:10;;;;;;;2.47;1.70;;;;;;;15.70;81.89;100589.00;6244865;28;20322;-66
2023/08/31 07:43:31;;;;;;;3.20;1.60;;;;;;;15.74;81.82;100595.75;6238098;28;20227;-66
2023/08/31 07:46:52;;;;;;;3.07;1.30;;;;;;;15.57;82.07;100604.13;6245532;28;20229;-66
2023/08/31 07:50:14;;;;;;;1.80;1.40;;;;;;;15.57;81.92;100596.84;6243953;28;20235;-67
2023/08/31 07:53:36;;;;;;;12.03;2.17;;;;;;;15.82;81.06;100592.16;6236227;28;20244;-67
2023/08/31 07:56:57;;;;;;;3.33;1.73;;;;;;;16.05;80.40;100598.50;6247319;28;20542;-67
2023/08/31 08:00:18;;;;;;;3.63;2.00;;;;;;;15.89;80.46;100599.44;6247705;28;20223;-67
2023/08/31 08:03:39;;;;;;;2.53;1.80;;;;;;;15.45;81.36;100600.09;6243354;28;24198;-67
2023/08/31 08:07:00;;;;;;;2.60;2.37;;;;;;;15.73;81.79;100604.06;6237162;28;20232;-66
2023/08/31 08:10:22;;;;;;;6.67;1.50;;;;;;;16.22;80.40;100602.81;6242864;28;20335;-65
2023/08/31 08:13:43;;;;;;;4.20;1.90;;;;;;;15.70;81.72;100609.88;6241314;28;20232;-66
2023/08/31 08:17:04;;;;;;;2.93;1.83;;;;;;;16.04;80.93;100607.69;6225393;28;20240;-68
2023/08/31 08:20:25;;;;;;;2.13;1.30;;;;;;;15.74;80.98;100612.06;6234162;28;20239;-66
2023/08/31 08:23:46;;;;;;;3.37;1.50;;;;;;;16.34;80.34;100609.53;6247482;28;20231;-67
2023/08/31 08:27:08;;;;;;;1.77;1.50;;;;;;;16.08;80.08;100609.03;6245326;28;20235;-67
2023/08/31 08:30:29;;;;;;;1.63;1.30;;;;;;;15.90;79.28;100612.00;6245169;28;20228;-67
2023/08/31 08:33:50;;;;;;;3.13;2.20;;;;;;;16.24;79.59;100619.81;6230602;28;20228;-67
2023/08/31 08:37:11;;;;;;;2.53;1.53;;;;;;;16.40;78.70;100616.97;6237548;28;20259;-67
2023/08/31 08:40:32;;;;;;;2.17;1.80;;;;;;;17.10;77.58;100614.09;6240224;28;20244;-68
2023/08/31 08:43:54;;;;;;;1.50;1.40;;;;;;;16.68;78.38;100611.91;6242093;28;22508;-67
2023/08/31 08:47:16;;;;;;;3.93;1.80;;;;;;;16.26;78.89;100616.91;6242845;28;20350;-66
2023/08/31 08:50:38;;;;;;;2.60;1.53;;;;;;;16.64;78.42;100619.59;6241760;28;20360;-69
2023/08/31 08:54:00;;;;;;;3.03;1.53;;;;;;;16.20;78.75;100617.63;6233566;28;20228;-67
2023/08/31 08:57:21;;;;;;;1.50;1.40;;;;;;;16.86;77.93;100608.84;6249660;28;20239;-66
2023/08/31 09:00:44;;;;;;;2.77;1.73;;;;;;;16.01;78.89;100627.06;6253788;28;20231;-67
2023/08/31 09:04:06;;;;;;;2.27;1.70;;;;;;;16.45;78.45;100622.75;6240860;28;20239;-66
2023/08/31 09:07:30;;;;;;;2.70;1.70;;;;;;;16.20;79.43;100626.63;6238742;28;20259;-66
2023/08/31 09:10:51;;;;;;;2.10;1.73;;;;;;;16.09;80.31;100623.44;6243635;28;20235;-66
2023/08/31 09:14:15;;;;;;;3.93;2.20;;;;;;;16.12;80.31;100631.28;6219693;28;20235;-68
2023/08/31 09:17:43;;;;;;;3.87;2.03;;;;;;;16.13;80.22;100633.81;6229872;28;21117;-67
2023/08/31 09:21:04;;;;;;;4.47;2.10;;;;;;;16.38;79.09;100621.75;6253214;28;20357;-66
2023/08/31 09:24:25;;;;;;;2.47;1.80;;;;;;;16.69;78.25;100636.22;6241408;28;20239;-67
2023/08/31 09:27:47;;;;;;;2.67;1.90;;;;;;;16.28;78.74;100640.19;6232735;28;20235;-67
2023/08/31 09:31:09;;;;;;;2.50;2.23;;;;;;;16.15;79.46;100650.78;6241584;28;20322;-68
2023/08/31 09:34:35;;;;;;;1.77;1.67;;;;;;;15.87;80.79;100644.13;6235720;28;20482;-67
2023/08/31 09:37:59;;;;;;;2.40;1.97;;;;;;;16.42;79.22;100652.16;6244513;28;20271;-67
2023/08/31 09:41:20;;;;;;;2.40;1.80;;;;;;;16.51;78.60;100642.97;6245255;28;20239;-67
2023/08/31 09:44:43;;;;;;;7.00;2.33;;;;;;;16.90;76.85;100640.97;6247589;28;20315;-66
2023/08/31 09:48:06;;;;;;;1.77;1.53;;;;;;;17.20;75.93;100634.59;6246537;28;20227;-68
2023/08/31 09:51:30;;;;;;;2.57;1.53;;;;;;;16.84;75.75;100635.41;6233218;28;21660;-68
2023/08/31 09:54:52;;;;;;;2.23;2.10;;;;;;;16.64;77.25;100640.50;6229922;28;20286;-66
2023/08/31 09:58:16;;;;;;;3.60;1.97;;;;;;;16.13;78.91;100646.56;6225132;28;20541;-67
2023/08/31 10:01:37;;;;;;;4.77;2.30;;;;;;;15.76;79.94;100648.09;6246404;28;20236;-67
2023/08/31 10:04:59;;;;;;;3.57;2.67;;;;;;;16.62;78.19;100640.69;6243128;28;20232;-67
2023/08/31 10:08:23;;;;;;;4.40;2.80;;;;;;;17.48;76.12;100641.09;6216611;28;20323;-67
2023/08/31 10:11:45;;;;;;;3.20;2.23;;;;;;;17.21;75.03;100646.34;6246967;28;21687;-67
2023/08/31 10:15:07;;;;;;;6.60;2.60;;;;;;;17.12;74.23;100645.56;6240319;28;20256;-66
2023/08/31 10:18:29;;;;;;;2.30;2.07;;;;;;;17.81;73.36;100649.81;6231257;28;20240;-66
2023/08/31 10:21:50;;;;;;;2.40;2.17;;;;;;;17.77;71.09;100650.38;6244856;28;20578;-67
2023/08/31 10:25:12;;;;;;;6.68;2.60;;;;;;;17.74;72.35;100648.03;6251418;28;20235;-67
2023/08/31 10:28:41;;;;;;;1.85;1.75;;;;;;;18.63;69.52;100645.81;6247988;28;20231;-68
2023/08/31 10:32:03;;;;;;;2.78;2.58;;;;;;;19.30;66.77;100639.94;6258346;28;20899;-67
2023/08/31 10:35:41;;;;;;;2.50;1.90;;;;;;;18.58;66.30;100653.78;6258864;28;20259;-68
2023/08/31 10:39:07;;;;;;;2.58;2.20;;;;;;;17.91;69.14;100652.25;6243991;28;20286;-67
2023/08/31 10:42:29;;;;;;;3.42;2.40;;;;;;;17.41;70.72;100652.94;6247774;28;20360;-67
2023/08/31 10:45:51;;;;;;;3.17;2.92;;;;;;;18.02;69.09;100651.78;6258909;28;20240;-67
2023/08/31 10:49:18;;;;;;;4.60;2.83;;;;;;;18.50;67.75;100648.44;6222181;28;20252;-67
2023/08/31 10:52:45;;;;;;;4.07;3.40;;;;;;;18.48;68.22;100647.78;6246472;28;20227;-66
2023/08/31 10:56:07;;;;;;;2.78;2.42;;;;;;;18.86;65.85;100651.09;6249250;28;20259;-67
2023/08/31 10:59:43;;;;;;;2.75;2.50;;;;;;;19.25;63.82;100643.28;6238150;28;20254;-66
2023/08/31 11:03:04;;;;;;;4.07;1.98;;;;;;;19.30;64.49;100648.13;6240754;28;20232;-67
2023/08/31 11:06:29;;;;;;;3.63;2.13;;;;;;;19.73;63.00;100641.56;6256334;28;20770;-66
2023/08/31 11:09:50;;;;;;;3.58;2.70;;;;;;;19.47;62.54;100635.88;6227772;28;20260;-67
2023/08/31 11:13:17;;;;;;;2.13;1.92;;;;;;;18.66;65.12;100644.59;6233323;28;20266;-67
2023/08/31 11:16:40;;;;;;;1.95;1.50;;;;;;;18.84;64.62;100636.78;6240848;28;20335;-67
2023/08/31 11:20:05;;;;;;;3.03;2.17;;;;;;;19.20;64.15;100650.38;6231916;28;20264;-67
2023/08/31 11:23:26;;;;;;;4.45;1.67;;;;;;;19.52;62.19;100641.63;6244224;28;20617;-67
2023/08/31 11:26:48;;;;;;;2.13;1.23;;;;;;;20.30;60.26;100642.06;6243438;28;20263;-67
2023/08/31 11:30:14;;;;;;;1.88;1.30;;;;;;;21.77;55.66;100636.34;6248245;28;20259;-66
2023/08/31 11:33:37;;;;;;;1.80;1.33;;;;;;;21.45;54.55;100634.47;6248252;28;20232;-66
2023/08/31 11:36:58;;;;;;;3.08;1.48;;;;;;;22.82;51.90;100639.50;6248623;28;20605;-67
2023/08/31 11:40:19;;;;;;;3.47;1.38;;;;;;;26.53;44.93;100647.56;6257237;28;20518;-67
2023/08/31 11:43:40;;;;;;;1.33;1.08;;;;;;;25.66;45.25;100639.50;6247634;28;21687;-68
2023/08/31 11:47:02;;;;;;;2.83;1.30;;;;;;;21.77;52.34;100646.47;6259763;28;20521;-67
2023/08/31 11:50:26;;;;;;;1.85;1.13;;;;;;;25.18;47.45;100646.00;6257085;28;20231;-67
2023/08/31 11:53:47;;;;;;;1.58;1.25;;;;;;;24.28;47.00;100649.00;6245233;28;20258;-67
2023/08/31 11:57:09;;;;;;;1.52;0.93;;;;;;;25.82;44.05;100645.16;6244888;28;20525;-66
2023/08/31 12:00:30;;;;;;;1.67;1.02;;;;;;;24.21;46.21;100662.00;6254394;28;20635;-67
2023/08/31 12:03:52;;;;;;;1.15;0.70;;;;;;;21.64;52.08;100661.03;6247179;28;20664;-67
2023/08/31 12:07:18;;;;;;;1.20;1.10;;;;;;;24.79;45.51;100663.16;6246404;28;20239;-66
2023/08/31 12:10:41;;;;;;;1.48;0.75;;;;;;;27.94;40.60;100663.06;6250824;28;20598;-66
2023/08/31 12:14:03;;;;;;;1.95;1.02;;;;;;;26.51;41.79;100666.31;6251441;28;20252;-67
2023/08/31 12:17:24;;;;;;;2.33;1.20;;;;;;;22.12;49.15;100675.34;6239258;28;20254;-67
2023/08/31 12:20:46;;;;;;;1.65;0.63;;;;;;;21.35;51.88;100675.22;6257116;28;21502;-67
2023/08/31 12:24:09;;;;;;;2.03;0.90;;;;;;;23.40;49.23;100670.44;6240371;28;20517;-68
2023/08/31 12:27:30;;;;;;;2.05;0.88;;;;;;;21.34;51.48;100677.09;6245586;28;20236;-66
2023/08/31 12:30:53;;;;;;;1.13;0.77;;;;;;;21.43;52.24;100672.25;6255082;28;20231;-65
2023/08/31 12:34:14;;;;;;;0.60;0.60;;;;;;;22.24;49.91;100668.94;6245853;28;20231;-67
2023/08/31 12:37:35;;;;;;;0.88;0.52;;;;;;;21.62;51.69;100673.28;6249536;28;20236;-66
2023/08/31 12:40:57;;;;;;;4.13;1.08;;;;;;;20.48;54.54;100679.88;6257446;28;20266;-66
2023/08/31 12:44:18;;;;;;;2.90;0.68;;;;;;;19.56;57.77;100698.47;6252577;28;20853;-66
2023/08/31 12:47:39;;;;;;;1.40;0.98;;;;;;;18.04;68.36;100726.09;6248875;28;20236;-67
2023/08/31 12:51:00;;;;;;;3.28;1.10;;;;;;;17.30;71.39;100746.91;6250857;28;20240;-67
2023/08/31 12:54:20;;;;;;;3.13;1.30;;;;;;;16.86;73.89;100764.06;6252533;28;20236;-66
2023/08/31 12:57:44;;;;;;;1.67;1.10;;;;;;;16.81;75.37;100761.03;6240720;28;20348;-67
2023/08/31 13:01:05;;;;;;;3.15;0.98;;;;;;;17.01;75.77;100744.06;6255718;28;20232;-67
2023/08/31 13:04:27;;;;;;;1.45;0.57;;;;;;;17.43;76.39;100743.56;6247275;28;20335;-66
2023/08/31 13:07:47;;;;;;;0.77;0.75;;;;;;;18.36;74.30;100742.06;6235399;28;20236;-67
2023/08/31 13:11:08;;;;;;;1.17;0.88;;;;;;;18.74;72.54;100740.06;6251622;28;20236;-67
2023/08/31 13:14:30;;;;;;;2.83;1.05;;;;;;;19.01;70.13;100733.84;6245031;28;20259;-67
2023/08/31 13:17:51;;;;;;;0.65;0.63;;;;;;;20.98;66.27;100722.38;6239704;28;20244;-67
2023/08/31 13:21:12;;;;;;;2.00;0.70;;;;;;;22.44;61.67;100718.34;6249606;28;20232;-68
2023/08/31 13:24:33;;;;;;;0.90;0.73;;;;;;;25.69;52.68;100713.59;6242867;28;20741;-68
2023/08/31 13:27:54;;;;;;;1.42;1.33;;;;;;;26.81;46.56;100711.22;6234647;28;20251;-66
2023/08/31 13:31:16;;;;;;;1.52;1.42;;;;;;;28.51;43.77;100721.84;6248437;28;20227;-67
2023/08/31 13:34:38;;;;;;;0.80;0.80;;;;;;;28.73;43.42;100717.16;6234421;28;20227;-67
2023/08/31 13:37:59;;;;;;;1.17;0.98;;;;;;;28.78;41.45;100717.25;6226156;28;20228;-66
2023/08/31 13:41:19;;;;;;;0.50;0.50;;;;;;;27.12;42.27;100717.34;6247798;28;20322;-67
2023/08/31 13:44:40;;;;;;;0.85;0.70;;;;;;;24.78;48.32;100715.81;6236535;28;20674;-67
2023/08/31 13:48:04;;;;;;;1.25;0.88;;;;;;;23.64;50.14;100715.53;6234827;28;20227;-66
2023/08/31 13:51:25;;;;;;;0.95;0.82;;;;;;;24.06;47.24;100711.13;6238290;28;20278;-66
2023/08/31 13:54:46;;;;;;;11.18;9.23;;;;;;;25.34;45.78;100711.59;6213865;28;20235;-67
2023/08/31 13:58:07;;;;;;;1.10;0.90;;;;;;;26.62;44.25;100712.44;6225769;28;20811;-67
2023/08/31 14:01:29;;;;;;;1.00;0.95;;;;;;;21.94;50.41;100721.84;6238249;28;20241;-67
2023/08/31 14:04:52;;;;;;;3.08;0.85;;;;;;;23.66;48.51;100722.50;6235604;28;20228;-67
2023/08/31 14:08:12;;;;;;;1.73;1.13;;;;;;;23.78;48.81;100709.66;6223989;28;20228;-68
2023/08/31 14:11:34;;;;;;;0.57;0.50;;;;;;;20.95;53.64;100720.03;6230869;28;20323;-67
2023/08/31 14:14:55;;;;;;;3.03;1.00;;;;;;;19.63;58.79;100725.88;6221886;28;20240;-67
2023/08/31 14:18:16;;;;;;;0.77;0.57;;;;;;;19.25;61.17;100719.81;6219485;28;24172;-67
2023/08/31 14:21:38;;;;;;;0.63;0.63;;;;;;;19.15;62.34;100731.06;6246075;28;20269;-66
2023/08/31 14:25:00;;;;;;;0.60;0.60;;;;;;;20.39;61.53;100730.38;6244194;28;20243;-67
2023/08/31 14:28:21;;;;;;;4.07;1.08;;;;;;;21.64;55.83;100721.41;6228738;28;20254;-67
2023/08/31 14:31:42;;;;;;;0.40;0.40;;;;;;;20.63;58.86;100733.44;6256811;28;20238;-68
2023/08/31 14:35:04;;;;;;;0.70;0.40;;;;;;;19.39;62.00;100745.41;6247153;28;20231;-67
2023/08/31 14:38:27;;;;;;;1.65;1.00;;;;;;;18.83;64.80;100733.47;6241896;28;20335;-66
2023/08/31 14:41:48;;;;;;;1.50;0.80;;;;;;;19.77;63.83;100733.13;6255965;28;20641;-67
2023/08/31 14:45:09;;;;;;;1.85;0.90;;;;;;;19.71;61.93;100728.44;6253212;28;20235;-66
2023/08/31 14:48:31;;;;;;;0.90;0.90;;;;;;;19.05;64.34;100729.69;6252696;28;20231;-67
2023/08/31 14:51:52;;;;;;;1.20;1.13;;;;;;;20.02;63.57;100728.88;6260977;28;20240;-66
2023/08/31 14:55:15;;;;;;;1.73;1.13;;;;;;;19.89;60.68;100726.91;6254564;28;20243;-67
2023/08/31 14:58:35;;;;;;;0.93;0.88;;;;;;;19.94;61.34;100734.53;6255704;28;20236;-67
2023/08/31 15:01:56;;;;;;;1.05;1.05;;;;;;;19.30;62.70;100736.47;6254377;28;20239;-66
2023/08/31 15:05:17;;;;;;;1.23;1.20;;;;;;;19.25;62.84;100729.91;6237552;28;20310;-66
2023/08/31 15:08:40;;;;;;;1.27;1.00;;;;;;;19.20;62.65;100744.16;6246075;28;20762;-65
2023/08/31 15:12:02;;;;;;;0.60;0.57;;;;;;;19.35;63.51;100734.03;6242681;28;20227;-65
2023/08/31 15:15:23;;;;;;;1.85;1.00;;;;;;;18.99;64.80;100738.69;6254002;28;21088;-66
2023/08/31 15:18:47;;;;;;;0.52;0.52;;;;;;;18.88;65.07;100740.03;6226665;28;20251;-65
2023/08/31 15:22:07;;;;;;;1.13;1.02;;;;;;;18.75;66.13;100745.34;6247883;28;20249;-66
2023/08/31 15:25:28;;;;;;;0.63;0.63;;;;;;;18.60;66.18;100746.41;6248015;28;20246;-67
2023/08/31 15:28:51;;;;;;;2.13;0.85;;;;;;;18.61;67.32;100750.84;6251621;28;20625;-67
2023/08/31 15:32:12;;;;;;;1.13;0.80;;;;;;;19.06;66.64;100748.66;6253793;28;22091;-65
2023/08/31 15:35:33;;;;;;;1.02;0.70;;;;;;;19.07;66.74;100744.00;6250060;28;20538;-66
2023/08/31 15:38:54;;;;;;;0.73;0.70;;;;;;;19.00;65.49;100749.41;6255084;28;20256;-66